Time;durP1;ratioP1;P1;durP2;ratioP2;P2;SDS_P1;SDS_P2;PMS_P1;PMS_P2;Temp;Humidity;BMP_temperature;BMP_pressure;BME280_temperature;BME280_humidity;BME280_pressure;Samples;Min_cycle;Max_cycle;Signal;HPM_P1;HPM_P2
2023/02/07 00:01:39;;;;;;;45.53;30.70;;;-2.80;1.00;;;;;;5056998;28;20745;-79
2023/02/07 00:04:19;;;;;;;43.70;31.42;;;-2.80;1.00;;;;;;5036020;28;20295;-80
2023/02/07 00:06:50;;;;;;;44.22;32.97;;;-2.80;1.00;;;;;;5022903;28;20353;-80
2023/02/07 00:09:21;;;;;;;44.85;31.63;;;-2.90;1.00;;;;;;5053744;28;20232;-80
2023/02/07 00:11:50;;;;;;;46.42;31.25;;;-2.90;1.00;;;;;;5022757;28;20335;-80
2023/02/07 00:14:23;;;;;;;47.92;34.25;;;-3.00;1.00;;;;;;5025655;28;20245;-79
2023/02/07 00:16:50;;;;;;;43.55;33.10;;;-2.90;1.00;;;;;;5048969;28;20951;-78
2023/02/07 00:19:21;;;;;;;46.10;32.35;;;-2.90;1.00;;;;;;5042138;28;20980;-77
2023/02/07 00:21:48;;;;;;;44.50;31.73;;;-2.90;1.00;;;;;;5045292;28;20237;-78
2023/02/07 00:24:16;;;;;;;44.35;31.95;;;-2.90;1.00;;;;;;5043006;28;20292;-76
2023/02/07 00:26:45;;;;;;;45.75;32.25;;;-2.90;1.00;;;;;;5048598;28;20269;-78
2023/02/07 00:29:13;;;;;;;43.95;31.27;;;-2.90;1.00;;;;;;5047630;28;20229;-76
2023/02/07 00:31:40;;;;;;;45.50;32.72;;;-3.00;1.00;;;;;;5051757;28;20272;-78
2023/02/07 00:34:09;;;;;;;42.25;29.20;;;-3.00;1.00;;;;;;5043995;28;20240;-79
2023/02/07 00:36:39;;;;;;;40.00;31.40;;;-3.10;1.00;;;;;;5032548;28;20307;-78
2023/02/07 00:39:12;;;;;;;41.65;31.50;;;-3.10;1.00;;;;;;5052849;28;20237;-80
2023/02/07 00:41:40;;;;;;;43.20;31.75;;;-3.10;1.00;;;;;;5052989;28;20343;-76
2023/02/07 00:44:07;;;;;;;42.53;30.52;;;-3.10;1.00;;;;;;5052349;28;20268;-78
2023/02/07 00:46:35;;;;;;;42.83;31.35;;;-3.10;1.00;;;;;;5053705;28;20256;-79
2023/02/07 00:49:02;;;;;;;43.80;29.45;;;-3.10;1.00;;;;;;5056017;28;20230;-77
2023/02/07 00:51:32;;;;;;;40.10;30.80;;;-3.10;1.00;;;;;;5054295;28;20239;-78
2023/02/07 00:54:01;;;;;;;43.30;29.33;;;-3.10;1.00;;;;;;5061733;28;20236;-77
2023/02/07 00:56:30;;;;;;;41.35;30.65;;;-3.00;1.00;;;;;;5054067;28;20253;-79
2023/02/07 00:58:58;;;;;;;41.88;30.48;;;-3.00;1.00;;;;;;5058395;28;20238;-77
2023/02/07 01:01:26;;;;;;;37.13;27.73;;;-3.00;1.00;;;;;;5056613;28;20245;-77
2023/02/07 01:03:54;;;;;;;41.53;29.63;;;-3.00;1.00;;;;;;5050739;28;20237;-80
2023/02/07 01:06:21;;;;;;;40.03;27.52;;;-2.90;1.00;;;;;;5052602;28;20269;-76
2023/02/07 01:08:49;;;;;;;38.38;28.65;;;-3.00;1.00;;;;;;5056084;28;20238;-79
2023/02/07 01:11:18;;;;;;;40.03;30.23;;;-3.00;1.00;;;;;;5057291;28;20243;-78
2023/02/07 01:13:45;;;;;;;42.38;30.88;;;-3.00;1.00;;;;;;5054791;28;20295;-78
2023/02/07 01:16:19;;;;;;;40.50;28.63;;;-3.00;1.00;;;;;;5051837;28;20300;-78
2023/02/07 01:18:46;;;;;;;40.17;28.80;;;-3.10;1.00;;;;;;5047271;28;20240;-78
2023/02/07 01:21:18;;;;;;;39.45;27.52;;;-3.20;1.00;;;;;;5056781;28;20292;-79
2023/02/07 01:23:45;;;;;;;44.40;29.63;;;-3.20;1.00;;;;;;5054545;28;20291;-80
2023/02/07 01:26:16;;;;;;;41.25;27.67;;;-3.30;1.00;;;;;;5051479;28;20395;-76
2023/02/07 01:28:44;;;;;;;42.47;30.65;;;-3.40;1.00;;;;;;5052299;28;20281;-78
2023/02/07 01:31:12;;;;;;;41.47;29.92;;;-3.40;1.00;;;;;;5048153;28;20343;-77
2023/02/07 01:33:40;;;;;;;42.15;31.38;;;-3.40;1.00;;;;;;5050593;28;20236;-79
2023/02/07 01:36:10;;;;;;;42.47;28.88;;;-3.40;1.00;;;;;;5045043;28;20233;-80
2023/02/07 01:38:39;;;;;;;40.55;29.23;;;-3.40;1.00;;;;;;5049623;28;21117;-78
2023/02/07 01:41:07;;;;;;;38.97;28.00;;;-3.40;1.00;;;;;;5043967;28;20291;-78
2023/02/07 01:43:34;;;;;;;39.05;27.80;;;-3.50;1.00;;;;;;5054499;28;20229;-78
2023/02/07 01:46:02;;;;;;;39.08;28.60;;;-3.60;1.00;;;;;;5031258;28;20249;-78
2023/02/07 01:48:35;;;;;;;36.30;28.27;;;-3.60;1.00;;;;;;5046541;28;20241;-77
2023/02/07 01:51:07;;;;;;;38.25;25.50;;;-3.60;1.00;;;;;;5048294;28;20243;-77
2023/02/07 01:53:38;;;;;;;37.70;25.95;;;-3.60;1.00;;;;;;5050427;28;20252;-77
2023/02/07 01:56:09;;;;;;;37.42;28.60;;;-3.60;1.00;;;;;;5054636;28;20650;-76
2023/02/07 01:58:37;;;;;;;43.00;29.13;;;-3.60;1.00;;;;;;5053376;28;20351;-78
2023/02/07 02:01:19;;;;;;;35.55;26.83;;;-3.60;1.00;;;;;;5052903;28;20226;-78
2023/02/07 02:03:49;;;;;;;38.30;27.08;;;-3.70;1.00;;;;;;5063239;28;20244;-80
2023/02/07 02:06:18;;;;;;;37.35;25.90;;;-3.70;1.00;;;;;;5058306;28;20233;-80
2023/02/07 02:08:50;;;;;;;35.05;24.63;;;-3.80;1.00;;;;;;5063691;28;20260;-77
2023/02/07 02:11:39;;;;;;;32.08;23.80;;;-3.80;1.00;;;;;;5051567;28;20245;-80
2023/02/07 02:14:22;;;;;;;35.15;24.65;;;-3.90;1.00;;;;;;5057339;28;20241;-81
2023/02/07 02:16:57;;;;;;;34.33;25.70;;;-3.80;1.00;;;;;;5059730;28;20249;-80
2023/02/07 02:19:52;;;;;;;35.05;25.35;;;-3.90;1.00;;;;;;5050197;28;20240;-80
2023/02/07 02:22:47;;;;;;;35.75;24.67;;;-4.00;1.00;;;;;;4991078;28;20234;-82
2023/02/07 02:25:36;;;;;;;37.75;25.98;;;-4.00;1.00;;;;;;5044638;28;20237;-80
2023/02/07 02:28:31;;;;;;;38.25;26.27;;;-3.90;1.00;;;;;;5056742;28;20237;-80
2023/02/07 02:31:16;;;;;;;35.00;26.60;;;-3.90;1.00;;;;;;5066813;28;20270;-81
2023/02/07 02:33:53;;;;;;;38.13;28.25;;;-3.80;1.00;;;;;;5059543;27;20575;-81
2023/02/07 02:36:27;;;;;;;40.00;27.40;;;-3.80;1.00;;;;;;5053732;28;20272;-80
2023/02/07 02:39:07;;;;;;;38.60;27.67;;;-3.80;1.00;;;;;;5045316;28;20241;-77
2023/02/07 02:41:48;;;;;;;35.13;28.98;;;-3.90;1.00;;;;;;5043444;28;20245;-78
2023/02/07 02:44:27;;;;;;;39.80;28.65;;;-3.90;1.00;;;;;;5069177;28;20956;-78
2023/02/07 02:47:02;;;;;;;38.03;29.10;;;-4.00;1.00;;;;;;5066123;28;20303;-75
2023/02/07 02:49:41;;;;;;;41.35;30.52;;;-4.00;1.00;;;;;;5049868;28;21131;-77
2023/02/07 02:52:11;;;;;;;41.45;29.17;;;-4.00;1.00;;;;;;5040930;28;20301;-81
2023/02/07 02:54:48;;;;;;;38.28;29.65;;;-4.00;1.00;;;;;;5026798;28;20289;-79
2023/02/07 02:57:40;;;;;;;43.10;29.05;;;-4.10;1.00;;;;;;5084242;28;20244;-79
2023/02/07 03:00:47;;;;;;;38.15;29.02;;;-4.10;1.00;;;;;;5053910;27;20279;-80
2023/02/07 03:03:34;;;;;;;40.45;29.00;;;-4.20;1.00;;;;;;5018911;28;20236;-79
2023/02/07 03:06:20;;;;;;;38.15;27.15;;;-4.20;1.00;;;;;;5043158;28;20248;-80
2023/02/07 03:09:11;;;;;;;44.80;25.85;;;-4.30;1.00;;;;;;5052921;28;20260;-78
2023/02/07 03:11:57;;;;;;;38.63;26.25;;;-4.30;1.00;;;;;;5051753;28;20222;-77
2023/02/07 03:14:38;;;;;;;42.42;28.63;;;-4.40;1.00;;;;;;5058399;28;20264;-77
2023/02/07 03:20:10;;;;;;;36.35;28.80;;;-4.50;1.00;;;;;;5042106;28;20241;-78
2023/02/07 03:22:50;;;;;;;45.85;31.55;;;-4.40;1.00;;;;;;5058038;28;20247;-78
2023/02/07 03:25:27;;;;;;;46.08;30.58;;;-4.50;1.00;;;;;;5048851;28;20228;-82
2023/02/07 03:27:59;;;;;;;46.70;32.78;;;-4.50;1.00;;;;;;5045963;28;20213;-81
2023/02/07 03:30:39;;;;;;;41.22;32.00;;;-4.50;1.00;;;;;;5055490;28;20233;-79
2023/02/07 03:33:21;;;;;;;45.67;31.17;;;-4.60;1.00;;;;;;5035408;28;20291;-77
2023/02/07 03:35:58;;;;;;;44.72;31.30;;;-4.50;1.00;;;;;;5060077;28;20258;-77
2023/02/07 03:38:30;;;;;;;44.00;31.10;;;-4.50;1.00;;;;;;5053222;28;20229;-76
2023/02/07 03:41:08;;;;;;;44.78;30.50;;;-4.50;1.00;;;;;;5064562;28;20291;-77
2023/02/07 03:43:40;;;;;;;42.42;32.28;;;-4.50;1.00;;;;;;5068613;28;20251;-80
2023/02/07 03:46:10;;;;;;;41.05;30.25;;;-4.50;1.00;;;;;;5056544;28;20243;-79
2023/02/07 03:48:39;;;;;;;44.17;31.00;;;-4.50;1.00;;;;;;5077972;28;20260;-80
2023/02/07 03:51:08;;;;;;;45.95;31.20;;;-4.40;1.00;;;;;;5062933;28;20237;-81
2023/02/07 03:53:40;;;;;;;41.90;30.83;;;-4.40;1.00;;;;;;5056277;28;20229;-78
2023/02/07 03:56:09;;;;;;;43.63;29.08;;;-4.40;1.00;;;;;;5054659;28;20240;-80
2023/02/07 03:58:39;;;;;;;38.03;29.08;;;-4.40;1.00;;;;;;5056950;28;20274;-79
2023/02/07 04:01:18;;;;;;;47.97;31.90;;;-4.40;1.00;;;;;;5044948;28;20230;-79
2023/02/07 04:03:59;;;;;;;43.42;28.77;;;-4.40;1.00;;;;;;5043244;28;20230;-80
2023/02/07 04:06:30;;;;;;;45.13;30.75;;;-4.40;1.00;;;;;;5034586;28;20229;-78
2023/02/07 04:09:00;;;;;;;38.45;29.52;;;-4.40;1.00;;;;;;5036265;28;20253;-81
2023/02/07 04:11:30;;;;;;;42.90;32.17;;;-4.40;1.00;;;;;;5072924;28;20224;-79
2023/02/07 04:14:00;;;;;;;38.15;30.00;;;-4.50;1.00;;;;;;5040459;28;20245;-79
2023/02/07 04:16:29;;;;;;;40.13;30.52;;;-4.40;1.00;;;;;;5030014;28;20249;-79
2023/02/07 04:18:59;;;;;;;40.28;28.45;;;-4.30;1.00;;;;;;5061480;28;20229;-81
2023/02/07 04:21:26;;;;;;;40.60;29.42;;;-4.30;1.00;;;;;;5060855;28;20233;-77
2023/02/07 04:23:53;;;;;;;44.30;31.13;;;-4.20;1.00;;;;;;5050691;28;20241;-76
2023/02/07 04:26:24;;;;;;;46.38;30.85;;;-4.20;1.00;;;;;;5052324;28;21548;-76
2023/02/07 04:28:51;;;;;;;39.58;29.67;;;-4.20;1.00;;;;;;5029085;28;20788;-77
2023/02/07 04:31:18;;;;;;;46.63;30.80;;;-4.20;1.00;;;;;;5049496;28;21090;-76
2023/02/07 04:33:45;;;;;;;43.20;30.10;;;-4.30;1.00;;;;;;5052716;28;21090;-77
2023/02/07 04:36:14;;;;;;;38.42;29.80;;;-4.30;1.00;;;;;;5052296;28;20244;-77
2023/02/07 04:38:41;;;;;;;41.92;30.67;;;-4.40;1.00;;;;;;5052138;28;21257;-76
2023/02/07 04:41:08;;;;;;;41.22;28.60;;;-4.40;1.00;;;;;;5053182;28;20634;-77
2023/02/07 04:43:38;;;;;;;40.83;27.33;;;-4.50;1.00;;;;;;5055917;28;20681;-78
2023/02/07 04:46:07;;;;;;;39.63;27.65;;;-4.60;1.00;;;;;;5053259;28;20354;-79
2023/02/07 04:48:36;;;;;;;37.55;26.80;;;-4.60;1.00;;;;;;5071590;28;21108;-77
2023/02/07 04:51:05;;;;;;;43.70;28.88;;;-4.70;1.00;;;;;;5065808;27;20235;-76
2023/02/07 04:53:32;;;;;;;38.88;29.45;;;-4.70;1.00;;;;;;5049097;28;20253;-76
2023/02/07 04:55:59;;;;;;;36.67;28.60;;;-4.80;1.00;;;;;;5056446;28;20284;-79
2023/02/07 04:58:30;;;;;;;41.63;29.15;;;-4.80;1.00;;;;;;5052045;28;20233;-76
2023/02/07 05:01:00;;;;;;;38.25;27.95;;;-4.80;1.00;;;;;;5042372;28;20252;-76
2023/02/07 05:03:30;;;;;;;38.15;28.60;;;-4.80;1.00;;;;;;5045697;28;20291;-78
2023/02/07 05:05:57;;;;;;;34.53;26.35;;;-4.70;1.00;;;;;;5047643;28;21204;-75
2023/02/07 05:08:26;;;;;;;39.15;27.75;;;-4.70;1.00;;;;;;5043547;28;20233;-77
2023/02/07 05:10:54;;;;;;;45.22;28.45;;;-4.60;1.00;;;;;;5050046;28;20240;-78
2023/02/07 05:13:23;;;;;;;41.67;30.13;;;-4.60;1.00;;;;;;5051838;28;20274;-78
2023/02/07 05:15:50;;;;;;;44.03;31.05;;;-4.60;1.00;;;;;;5042383;28;20234;-79
2023/02/07 05:18:19;;;;;;;36.83;28.30;;;-4.60;1.00;;;;;;5051580;28;21026;-77
2023/02/07 05:20:47;;;;;;;40.72;27.65;;;-4.60;1.00;;;;;;5053110;28;21050;-76
2023/02/07 05:23:14;;;;;;;38.88;29.27;;;-4.60;1.00;;;;;;5054828;28;20720;-76
2023/02/07 05:25:42;;;;;;;37.80;28.02;;;-4.70;1.00;;;;;;5051284;28;20241;-77
2023/02/07 05:28:09;;;;;;;43.65;29.63;;;-4.70;1.00;;;;;;5054620;28;20241;-77
2023/02/07 05:30:38;;;;;;;39.28;27.90;;;-4.70;1.00;;;;;;5053387;28;20242;-77
2023/02/07 05:33:08;;;;;;;36.97;27.95;;;-4.80;1.00;;;;;;5044364;28;20259;-77
2023/02/07 05:35:41;;;;;;;43.63;28.55;;;-4.80;1.00;;;;;;5049783;28;20264;-78
2023/02/07 05:38:10;;;;;;;36.97;27.60;;;-4.90;1.00;;;;;;5048668;28;20234;-78
2023/02/07 05:40:40;;;;;;;37.97;29.58;;;-5.00;1.00;;;;;;5053293;28;20237;-78
2023/02/07 05:43:09;;;;;;;33.83;26.63;;;-5.00;1.00;;;;;;5049056;28;20725;-83
2023/02/07 05:45:36;;;;;;;44.03;28.77;;;-5.00;1.00;;;;;;5048217;28;20241;-76
2023/02/07 05:48:04;;;;;;;44.15;30.35;;;-5.00;1.00;;;;;;5051129;28;20243;-77
2023/02/07 05:50:33;;;;;;;42.45;29.80;;;-5.00;1.00;;;;;;5040498;28;20240;-76
2023/02/07 05:53:01;;;;;;;40.45;28.52;;;-5.00;1.00;;;;;;5022632;28;20244;-76
2023/02/07 05:55:33;;;;;;;37.95;27.30;;;-5.00;1.00;;;;;;5051118;28;20245;-79
2023/02/07 05:58:01;;;;;;;38.25;27.55;;;-5.00;1.00;;;;;;5050462;28;20280;-77
2023/02/07 06:00:50;;;;;;;35.92;26.70;;;-5.10;1.00;;;;;;5031037;28;20252;-77
2023/02/07 06:03:20;;;;;;;35.90;27.17;;;-5.10;1.00;;;;;;5044810;28;20240;-77
2023/02/07 06:06:11;;;;;;;37.38;27.02;;;-5.00;1.00;;;;;;5041159;28;20227;-77
2023/02/07 06:08:40;;;;;;;34.40;25.60;;;-5.00;1.00;;;;;;5010493;28;20233;-77
2023/02/07 06:11:07;;;;;;;37.35;26.98;;;-5.00;1.00;;;;;;5045170;28;21057;-77
2023/02/07 06:13:38;;;;;;;38.13;27.52;;;-5.00;1.00;;;;;;5055628;28;20611;-76
2023/02/07 06:16:08;;;;;;;35.75;26.13;;;-5.00;1.00;;;;;;5079410;27;20217;-77
2023/02/07 06:18:52;;;;;;;;;;;;;;;;;;;;;
2023/02/07 06:21:21;;;;;;;43.70;30.13;;;-5.00;1.00;;;;;;5063768;28;40477;-77
2023/02/07 06:23:50;;;;;;;36.17;25.88;;;-5.00;1.00;;;;;;5057158;28;20221;-80
2023/02/07 06:26:18;;;;;;;36.42;26.52;;;-5.00;1.00;;;;;;5053196;28;20225;-78
2023/02/07 06:28:45;;;;;;;36.05;25.63;;;-5.00;1.00;;;;;;5054515;28;20233;-78
2023/02/07 06:31:12;;;;;;;36.47;25.08;;;-5.00;1.00;;;;;;5053915;28;20233;-84
2023/02/07 06:33:40;;;;;;;40.97;29.00;;;-4.90;1.00;;;;;;5049146;28;20238;-80
2023/02/07 06:36:08;;;;;;;40.50;26.98;;;-4.90;1.00;;;;;;5047837;28;20224;-77
2023/02/07 06:38:35;;;;;;;38.65;26.15;;;-4.90;1.00;;;;;;5038681;28;20748;-78
2023/02/07 06:41:10;;;;;;;43.38;27.92;;;-4.80;1.00;;;;;;5049128;28;20234;-82
2023/02/07 06:43:37;;;;;;;40.22;27.95;;;-4.80;1.00;;;;;;5054292;28;20246;-79
2023/02/07 06:46:05;;;;;;;41.45;29.45;;;-4.70;1.00;;;;;;5049746;28;20237;-79
2023/02/07 06:48:32;;;;;;;43.58;29.85;;;-4.70;1.00;;;;;;5053743;28;20242;-77
2023/02/07 06:50:59;;;;;;;43.22;29.42;;;-4.70;1.00;;;;;;5055165;28;20264;-78
2023/02/07 06:53:27;;;;;;;44.08;29.35;;;-4.60;1.00;;;;;;5046206;28;20269;-77
2023/02/07 06:55:54;;;;;;;41.17;29.08;;;-4.60;1.00;;;;;;5056431;28;20312;-76
2023/02/07 06:58:23;;;;;;;38.42;30.05;;;-4.60;1.00;;;;;;5042339;28;20245;-77
2023/02/07 07:00:52;;;;;;;45.08;31.35;;;-4.60;1.00;;;;;;5035667;28;20241;-77
2023/02/07 07:03:25;;;;;;;47.58;28.63;;;-4.60;1.00;;;;;;5045541;28;21047;-78
2023/02/07 07:06:06;;;;;;;41.60;30.55;;;-4.60;1.00;;;;;;5052471;28;20249;-77
2023/02/07 07:09:00;;;;;;;45.15;30.05;;;-4.60;1.00;;;;;;5065218;28;20243;-81
2023/02/07 07:11:29;;;;;;;54.92;27.70;;;-4.60;1.00;;;;;;5061189;28;20217;-80
2023/02/07 07:14:04;;;;;;;43.83;28.42;;;-4.60;1.00;;;;;;5044453;28;20244;-82
2023/02/07 07:16:32;;;;;;;41.10;30.58;;;-4.60;1.00;;;;;;5067216;28;20225;-76
2023/02/07 07:19:00;;;;;;;53.38;31.77;;;-4.60;1.00;;;;;;5063063;28;20236;-77
2023/02/07 07:21:30;;;;;;;44.15;31.08;;;-4.60;1.00;;;;;;5053957;28;20213;-79
2023/02/07 07:24:00;;;;;;;42.70;28.58;;;-4.60;1.00;;;;;;5066128;28;20245;-77
2023/02/07 07:26:27;;;;;;;41.35;29.40;;;-4.50;1.00;;;;;;5053808;28;20244;-80
2023/02/07 07:28:57;;;;;;;38.85;27.50;;;-4.50;1.00;;;;;;5076052;28;20244;-82
2023/02/07 07:31:25;;;;;;;38.75;27.83;;;-4.40;1.00;;;;;;5061500;28;20667;-83
2023/02/07 07:33:53;;;;;;;38.58;26.90;;;-4.30;1.00;;;;;;5062685;28;20363;-82
2023/02/07 07:36:20;;;;;;;38.25;29.17;;;-4.20;1.00;;;;;;5058598;28;20260;-82
2023/02/07 07:38:47;;;;;;;40.28;30.05;;;-4.10;1.00;;;;;;5061407;28;20237;-82
2023/02/07 07:41:15;;;;;;;39.72;27.75;;;-4.20;1.00;;;;;;5058216;28;20241;-82
2023/02/07 07:43:42;;;;;;;39.38;28.73;;;-4.20;1.00;;;;;;5062836;28;20241;-80
2023/02/07 07:46:09;;;;;;;39.00;28.45;;;-4.10;1.00;;;;;;5063078;28;20233;-80
2023/02/07 07:48:38;;;;;;;43.10;31.95;;;-4.00;1.00;;;;;;5059052;28;20226;-82
2023/02/07 07:51:06;;;;;;;40.95;29.70;;;-3.80;1.00;;;;;;5062878;28;20237;-82
2023/02/07 07:53:33;;;;;;;47.38;30.98;;;-3.70;1.00;;;;;;5051492;28;20246;-83
2023/02/07 07:56:01;;;;;;;40.45;29.13;;;-3.60;1.00;;;;;;5055896;28;20238;-81
2023/02/07 07:58:30;;;;;;;46.60;31.52;;;-3.50;1.00;;;;;;5031315;28;20238;-81
2023/02/07 08:01:00;;;;;;;45.83;32.38;;;-3.40;1.00;;;;;;5035467;28;20234;-82
2023/02/07 08:03:29;;;;;;;42.13;30.98;;;-3.40;1.00;;;;;;5030411;28;20286;-81
2023/02/07 08:05:59;;;;;;;45.42;32.05;;;-3.30;1.00;;;;;;5026495;28;20701;-82
2023/02/07 08:08:33;;;;;;;45.55;31.52;;;-3.20;1.00;;;;;;5044430;28;20328;-81
2023/02/07 08:11:01;;;;;;;44.63;31.55;;;-3.00;1.00;;;;;;5040440;28;20243;-81
2023/02/07 08:13:30;;;;;;;39.72;29.83;;;-2.90;1.00;;;;;;5021519;28;20237;-82
2023/02/07 08:16:14;;;;;;;;;;;;;;;;;;;;;
2023/02/07 08:18:42;;;;;;;87.50;61.22;;;-2.70;1.00;;;;;;5025105;28;42131;-82
2023/02/07 08:21:10;;;;;;;49.10;32.90;;;-2.60;1.00;;;;;;5048728;28;20687;-82
2023/02/07 08:23:39;;;;;;;41.05;31.80;;;-2.50;1.00;;;;;;5071969;28;20688;-81
2023/02/07 08:26:07;;;;;;;42.13;31.33;;;-2.40;1.00;;;;;;5047960;28;20252;-83
2023/02/07 08:28:34;;;;;;;47.45;35.08;;;-2.30;1.00;;;;;;5063231;28;20240;-83
2023/02/07 08:31:02;;;;;;;42.53;31.88;;;-2.10;1.00;;;;;;5058301;28;20233;-81
2023/02/07 08:33:29;;;;;;;42.00;31.25;;;-2.00;1.00;;;;;;5057082;28;20249;-82
2023/02/07 08:35:57;;;;;;;42.72;32.65;;;-1.90;1.00;;;;;;5045470;28;21035;-83
2023/02/07 08:38:26;;;;;;;47.60;34.70;;;-1.70;1.00;;;;;;5039676;28;20240;-81
2023/02/07 08:40:54;;;;;;;45.50;32.67;;;-1.50;1.00;;;;;;5033877;28;20222;-81
2023/02/07 08:43:23;;;;;;;44.25;33.88;;;-1.30;1.00;;;;;;5058995;28;20233;-82
2023/02/07 08:45:50;;;;;;;43.72;32.40;;;-1.00;1.00;;;;;;5036607;28;20247;-82
2023/02/07 08:48:17;;;;;;;48.42;32.45;;;-0.80;1.00;;;;;;5062706;28;20237;-83
2023/02/07 08:50:44;;;;;;;44.67;33.05;;;-0.70;1.00;;;;;;5054640;28;20257;-82
2023/02/07 08:53:11;;;;;;;43.60;32.35;;;-0.60;1.00;;;;;;5052857;28;20240;-82
2023/02/07 08:55:42;;;;;;;45.60;30.17;;;-0.60;1.00;;;;;;5037578;28;20238;-82
2023/02/07 08:58:10;;;;;;;43.42;30.92;;;-0.60;1.00;;;;;;5032957;28;20226;-81
2023/02/07 09:00:42;;;;;;;39.85;29.80;;;-0.40;1.00;;;;;;5039518;28;20299;-82
2023/02/07 09:03:09;;;;;;;40.63;29.67;;;-0.20;1.00;;;;;;5056548;28;20760;-81
2023/02/07 09:05:39;;;;;;;38.20;30.30;;;0.30;1.00;;;;;;5053053;28;20292;-83
2023/02/07 09:08:10;;;;;;;34.80;29.23;;;0.80;1.00;;;;;;5054600;28;20238;-82
2023/02/07 09:10:37;;;;;;;36.17;27.80;;;0.80;1.00;;;;;;5075205;28;20243;-82
2023/02/07 09:13:20;;;;;;;41.65;29.27;;;0.90;1.00;;;;;;5050195;28;20252;-82
2023/02/07 09:15:54;;;;;;;38.53;27.58;;;1.10;1.00;;;;;;5025528;28;20237;-82
2023/02/07 09:18:21;;;;;;;37.85;28.05;;;1.10;1.00;;;;;;5052403;28;21216;-83
2023/02/07 09:20:48;;;;;;;42.33;29.77;;;1.00;1.00;;;;;;5049255;28;20332;-82
2023/02/07 09:23:21;;;;;;;40.13;29.40;;;1.00;1.00;;;;;;5054970;28;20265;-80
2023/02/07 09:25:51;;;;;;;37.55;30.80;;;1.00;1.00;;;;;;5053636;28;20327;-83
2023/02/07 09:28:19;;;;;;;38.40;29.63;;;1.10;1.00;;;;;;5048548;28;20240;-81
2023/02/07 09:30:52;;;;;;;40.63;30.05;;;1.30;1.00;;;;;;5047371;28;21334;-83
2023/02/07 09:33:22;;;;;;;40.90;30.90;;;1.40;1.00;;;;;;5046190;28;20241;-82
2023/02/07 09:35:49;;;;;;;38.97;29.20;;;1.50;1.00;;;;;;5050991;28;20240;-82
2023/02/07 09:38:20;;;;;;;42.90;31.42;;;1.90;1.00;;;;;;5051082;28;20237;-83
2023/02/07 09:40:49;;;;;;;40.47;29.52;;;2.40;1.00;;;;;;5054993;28;20291;-83
2023/02/07 09:43:27;;;;;;;40.40;29.63;;;3.60;1.00;;;;;;5063724;28;20245;-83
2023/02/07 09:45:59;;;;;;;38.78;28.30;;;5.10;1.00;;;;;;5056555;28;20264;-82
2023/02/07 09:48:32;;;;;;;35.20;28.42;;;6.50;1.00;;;;;;5054730;28;20319;-83
2023/02/07 09:51:04;;;;;;;36.90;27.05;;;7.80;1.00;;;;;;5054584;28;20233;-80
2023/02/07 09:53:40;;;;;;;32.08;25.15;;;8.60;1.00;;;;;;5037461;28;20302;-84
2023/02/07 09:56:12;;;;;;;31.92;23.88;;;9.00;1.00;;;;;;5032184;28;20257;-82
2023/02/07 09:58:44;;;;;;;32.95;25.63;;;8.70;1.00;;;;;;5055477;27;20332;-82
2023/02/07 10:01:17;;;;;;;35.28;26.08;;;7.60;1.00;;;;;;5055627;28;20249;-81
2023/02/07 10:03:51;;;;;;;32.08;24.75;;;6.80;1.00;;;;;;5052560;28;20242;-82
2023/02/07 10:06:26;;;;;;;32.35;25.67;;;6.00;1.00;;;;;;5051545;28;20294;-83
2023/02/07 10:08:55;;;;;;;36.08;24.67;;;5.90;1.00;;;;;;5054315;28;20259;-81
2023/02/07 10:11:33;;;;;;;30.42;23.60;;;6.60;1.00;;;;;;5057456;28;20233;-81
2023/02/07 10:14:16;;;;;;;31.58;24.42;;;7.10;1.00;;;;;;5052722;28;20320;-79
2023/02/07 10:16:55;;;;;;;33.80;25.15;;;7.20;1.00;;;;;;5037711;28;20240;-82
2023/02/07 10:19:34;;;;;;;31.85;23.98;;;6.70;1.00;;;;;;5057026;28;20318;-80
2023/02/07 10:22:13;;;;;;;29.17;23.83;;;6.50;1.00;;;;;;5050471;28;20237;-80
2023/02/07 10:25:08;;;;;;;34.50;24.67;;;6.30;1.00;;;;;;5052431;28;20264;-80
2023/02/07 10:27:42;;;;;;;29.05;23.67;;;5.80;1.00;;;;;;5044787;27;20233;-82
2023/02/07 10:30:15;;;;;;;30.20;22.55;;;5.30;1.00;;;;;;5036569;28;20253;-82
2023/02/07 10:32:46;;;;;;;30.40;22.58;;;5.20;1.00;;;;;;5028377;28;20300;-82
2023/02/07 10:35:18;;;;;;;28.08;22.15;;;5.30;1.00;;;;;;5026834;28;21004;-82
2023/02/07 10:37:48;;;;;;;29.50;22.23;;;5.20;1.00;;;;;;5026116;28;21137;-80
2023/02/07 10:40:21;;;;;;;30.23;22.15;;;5.50;1.00;;;;;;5034663;28;20312;-83
2023/02/07 10:42:55;;;;;;;28.23;22.35;;;6.10;1.00;;;;;;5054128;28;20248;-80
2023/02/07 10:45:22;;;;;;;29.13;22.63;;;6.90;1.00;;;;;;5051369;28;20236;-80
2023/02/07 10:47:51;;;;;;;31.88;24.13;;;7.30;1.00;;;;;;5050448;28;20781;-81
2023/02/07 10:50:20;;;;;;;32.15;22.08;;;7.40;1.00;;;;;;5049246;28;20265;-79
2023/02/07 10:52:51;;;;;;;28.98;20.80;;;7.40;1.00;;;;;;5060130;28;21036;-81
2023/02/07 10:55:19;;;;;;;24.42;19.50;;;7.30;1.00;;;;;;5043240;28;20257;-80
2023/02/07 10:57:54;;;;;;;28.05;20.95;;;6.90;1.00;;;;;;5047928;28;20263;-80
2023/02/07 11:00:26;;;;;;;25.77;18.92;;;6.90;1.00;;;;;;5052206;28;20228;-80
2023/02/07 11:03:00;;;;;;;34.17;22.13;;;7.50;1.00;;;;;;5051884;28;20231;-79
2023/02/07 11:05:57;;;;;;;28.55;18.15;;;8.50;1.00;;;;;;5050918;28;20240;-81
2023/02/07 11:08:29;;;;;;;22.92;17.02;;;9.50;1.00;;;;;;5055864;28;20239;-80
2023/02/07 11:10:58;;;;;;;25.60;19.10;;;9.10;1.00;;;;;;5040175;28;20245;-81
2023/02/07 11:13:27;;;;;;;23.75;18.70;;;8.40;1.00;;;;;;5039696;28;20242;-78
2023/02/07 11:16:04;;;;;;;28.75;18.10;;;8.00;1.00;;;;;;5053192;28;20252;-80
2023/02/07 11:18:42;;;;;;;24.55;19.50;;;7.90;1.00;;;;;;5022453;28;20258;-80
2023/02/07 11:21:23;;;;;;;23.85;18.13;;;8.20;1.00;;;;;;5036318;28;20800;-79
2023/02/07 11:23:51;;;;;;;28.30;19.70;;;8.90;1.00;;;;;;5050555;28;20253;-79
2023/02/07 11:26:23;;;;;;;23.25;18.20;;;9.10;1.00;;;;;;5041668;28;20290;-79
2023/02/07 11:28:53;;;;;;;28.52;18.08;;;9.30;1.00;;;;;;5041570;28;20235;-80
2023/02/07 11:31:29;;;;;;;25.17;18.93;;;9.70;1.00;;;;;;5034105;28;20215;-79
2023/02/07 11:34:22;;;;;;;25.33;18.30;;;10.10;1.00;;;;;;5047096;28;20451;-82
2023/02/07 11:36:50;;;;;;;27.37;17.80;;;11.00;1.00;;;;;;5047352;28;20454;-81
2023/02/07 11:39:20;;;;;;;26.17;19.00;;;12.00;1.00;;;;;;5053262;28;21347;-80
2023/02/07 11:41:55;;;;;;;30.53;20.50;;;12.00;1.00;;;;;;5044851;28;20409;-80
2023/02/07 11:44:25;;;;;;;32.13;20.27;;;11.90;1.00;;;;;;5056137;28;20468;-81
2023/02/07 11:46:55;;;;;;;31.90;19.33;;;11.60;1.00;;;;;;5055356;28;20412;-81
2023/02/07 11:49:27;;;;;;;24.37;18.60;;;11.50;1.00;;;;;;5053338;28;20429;-79
2023/02/07 11:51:58;;;;;;;29.57;20.27;;;11.40;1.00;;;;;;5043352;28;20453;-79
2023/02/07 11:54:32;;;;;;;23.03;17.90;;;11.10;1.00;;;;;;5037636;28;20444;-79
2023/02/07 11:57:03;;;;;;;28.80;19.63;;;11.10;1.00;;;;;;5038606;28;20409;-80
2023/02/07 11:59:33;;;;;;;30.07;18.80;;;11.00;1.00;;;;;;5052413;28;20477;-80
2023/02/07 12:02:17;;;;;;;35.27;21.93;;;10.70;1.00;;;;;;5047679;28;20429;-80
2023/02/07 12:04:45;;;;;;;35.27;20.53;;;11.40;1.00;;;;;;5049341;28;20434;-81
2023/02/07 12:07:17;;;;;;;25.83;18.10;;;11.40;1.00;;;;;;5042544;28;20464;-80
2023/02/07 12:09:46;;;;;;;28.87;19.60;;;11.10;1.00;;;;;;5051740;28;20510;-79
2023/02/07 12:12:18;;;;;;;31.27;19.13;;;10.80;1.00;;;;;;5055976;28;20503;-80
2023/02/07 12:14:51;;;;;;;22.53;18.33;;;10.70;1.00;;;;;;5056870;28;20500;-81
2023/02/07 12:17:25;;;;;;;27.10;18.73;;;10.80;1.00;;;;;;5048678;28;20478;-82
2023/02/07 12:19:59;;;;;;;28.27;19.50;;;11.70;1.00;;;;;;5033327;28;20491;-81
2023/02/07 12:22:35;;;;;;;30.13;20.17;;;12.50;1.00;;;;;;5050338;28;20456;-81
2023/02/07 12:25:12;;;;;;;32.53;18.90;;;13.30;1.00;;;;;;5022176;28;20478;-81
2023/02/07 12:27:44;;;;;;;21.17;17.17;;;14.00;1.00;;;;;;5049442;28;20470;-82
2023/02/07 12:30:16;;;;;;;22.23;16.40;;;14.50;1.00;;;;;;5037461;28;20559;-79
2023/02/07 12:32:53;;;;;;;19.77;15.10;;;15.40;1.00;;;;;;5041766;28;20566;-81
2023/02/07 12:35:26;;;;;;;23.40;17.10;;;16.00;1.00;;;;;;5053390;28;20514;-80
2023/02/07 12:38:01;;;;;;;29.37;21.03;;;16.60;1.00;;;;;;5045502;28;20447;-82
2023/02/07 12:40:33;;;;;;;35.23;20.40;;;17.30;1.00;;;;;;5047253;28;20565;-81
2023/02/07 12:43:09;;;;;;;23.40;17.10;;;17.10;1.00;;;;;;5055721;28;20491;-81
2023/02/07 12:46:03;;;;;;;29.97;18.03;;;16.90;1.00;;;;;;5056013;28;20458;-81
2023/02/07 12:48:45;;;;;;;36.17;22.20;;;17.40;1.00;;;;;;5045595;28;20660;-81
2023/02/07 12:51:33;;;;;;;32.90;22.07;;;16.70;1.00;;;;;;5051844;28;20473;-83
2023/02/07 12:54:11;;;;;;;35.80;24.40;;;15.90;1.00;;;;;;5050563;28;20434;-82
2023/02/07 12:56:49;;;;;;;20.73;15.80;;;15.60;1.00;;;;;;5034476;28;20443;-83
2023/02/07 12:59:26;;;;;;;19.27;14.80;;;16.40;1.00;;;;;;5060684;28;20428;-83
2023/02/07 13:02:07;;;;;;;20.80;16.43;;;16.60;1.00;;;;;;5066075;28;20477;-83
2023/02/07 13:04:58;;;;;;;19.07;14.30;;;16.50;1.00;;;;;;5054325;28;20469;-81
2023/02/07 13:07:53;;;;;;;20.50;15.27;;;15.40;1.00;;;;;;5042402;28;20463;-81
2023/02/07 13:10:35;;;;;;;33.73;19.80;;;14.80;1.00;;;;;;5053320;28;20554;-80